VIR384T EGLL-VRMM
Flight info
| Callsign | VIR384T |
|---|---|
| Flight time | N/A |
| Altitude | 35000 |
| Route | DET L6 DVR L9 KONAN UL607 FERDI DCT LIRSU DCT LALMI DCT ABTAL DCT LATLO DCT OBEDI DCT TEBLI DCT BOSNA DCT MAVAR DCT BITLA DCT AKINA DCT VANZA DCT LAKTO L560 SERMA L550 DATOK/N0484F370 L550 KARIK B411 DEESA Y415 NIMAR G662 KSA M321 RESAL T533 RAPMA DCT DEGNO DCT DAPOL L692 GISKA N569 GOLNI P570 KITAL L894 BOLUR/N0487F390 L894 ELBET ELBET1B |
| Aircraft | A35K/H-SDE2E3GHIJ3J4J5LM1ORWXY/LB1D1 |
Departure
| Time | 2026-05-03 21:39 |
|---|---|
| Airport | London Heathrow Airport (EGLL) |
Arrival
| Time | N/A |
|---|---|
| Airport | Velana International Airport (VRMM) |
| Time | Latitude | Longitude | Altitude | Speed | Heading |
|---|---|---|---|---|---|
| 2026-05-03 20:44 | 51.47512 | -0.42486 | 91 ft | 0 kts | 2° |
| 2026-05-03 21:29 | 51.47500 | -0.42487 | 73 ft | 4 kts | 1° |
| 2026-05-03 21:29 | 51.47474 | -0.42487 | 64 ft | 4 kts | 356° |
| 2026-05-03 21:29 | 51.47447 | -0.42481 | 90 ft | 4 kts | 341° |
| 2026-05-03 21:30 | 51.47427 | -0.42461 | 90 ft | 4 kts | 289° |
| 2026-05-03 21:30 | 51.47425 | -0.42453 | 89 ft | 1 kts | 275° |
| 2026-05-03 21:34 | 51.47428 | -0.42496 | 91 ft | 7 kts | 276° |
| 2026-05-03 21:34 | 51.47446 | -0.42618 | 92 ft | 17 kts | 285° |
| 2026-05-03 21:34 | 51.47485 | -0.42853 | 97 ft | 27 kts | 285° |
| 2026-05-03 21:35 | 51.47481 | -0.43084 | 99 ft | 22 kts | 238° |
| 2026-05-03 21:35 | 51.47356 | -0.43297 | 96 ft | 31 kts | 222° |
| 2026-05-03 21:35 | 51.47236 | -0.43471 | 96 ft | 18 kts | 218° |
| 2026-05-03 21:35 | 51.47113 | -0.43601 | 93 ft | 24 kts | 191° |
| 2026-05-03 21:36 | 51.46980 | -0.43611 | 94 ft | 2 kts | 178° |
| 2026-05-03 21:36 | 51.46937 | -0.43609 | 92 ft | 11 kts | 178° |
| 2026-05-03 21:36 | 51.46900 | -0.43605 | 92 ft | 5 kts | 176° |
| 2026-05-03 21:36 | 51.46833 | -0.43605 | 93 ft | 14 kts | 178° |
| 2026-05-03 21:37 | 51.46761 | -0.43503 | 98 ft | 16 kts | 138° |
| 2026-05-03 21:37 | 51.46643 | -0.43440 | 98 ft | 21 kts | 181° |
| 2026-05-03 21:37 | 51.46516 | -0.43461 | 101 ft | 10 kts | 217° |
| 2026-05-03 21:37 | 51.46502 | -0.43505 | 97 ft | 9 kts | 251° |
| 2026-05-03 21:38 | 51.46497 | -0.43576 | 95 ft | 0 kts | 267° |
| 2026-05-03 21:38 | 51.46497 | -0.43580 | 95 ft | 3 kts | 267° |
| 2026-05-03 21:38 | 51.46494 | -0.44148 | 93 ft | 77 kts | 269° |
| 2026-05-03 21:38 | 51.46490 | -0.45286 | 99 ft | 125 kts | 272° |
| 2026-05-03 21:39 | 51.46465 | -0.46941 | 265 ft | 168 kts | 266° |
| 2026-05-03 21:39 | 51.46456 | -0.48257 | 579 ft | 189 kts | 269° |
| 2026-05-03 21:39 | 51.46449 | -0.50635 | 908 ft | 238 kts | 269° |
| 2026-05-03 21:39 | 51.46431 | -0.54620 | 1644 ft | 288 kts | 269° |
| 2026-05-03 21:40 | 51.46422 | -0.56782 | 2457 ft | 292 kts | 270° |
| 2026-05-03 21:40 | 51.46411 | -0.59986 | 4048 ft | 283 kts | 269° |
| 2026-05-03 21:40 | 51.46266 | -0.63096 | 5547 ft | 275 kts | 258° |
| 2026-05-03 21:40 | 51.45655 | -0.65926 | 6978 ft | 263 kts | 240° |
| 2026-05-03 21:41 | 51.44535 | -0.68154 | 8289 ft | 253 kts | 219° |
| 2026-05-03 21:41 | 51.43039 | -0.69493 | 9562 ft | 243 kts | 197° |
| 2026-05-03 21:41 | 51.41405 | -0.69814 | 10657 ft | 234 kts | 176° |
| 2026-05-03 21:41 | 51.39881 | -0.69200 | 11652 ft | 227 kts | 157° |
| 2026-05-03 21:42 | 51.38577 | -0.67803 | 12443 ft | 228 kts | 138° |
| 2026-05-03 21:42 | 51.37624 | -0.65736 | 13099 ft | 235 kts | 118° |
| 2026-05-03 21:42 | 51.37151 | -0.63203 | 13664 ft | 241 kts | 102° |
| 2026-05-03 21:42 | 51.36950 | -0.60514 | 14090 ft | 246 kts | 99° |
| 2026-05-03 21:43 | 51.36774 | -0.57756 | 14326 ft | 253 kts | 99° |
| 2026-05-03 21:43 | 51.36575 | -0.54891 | 14445 ft | 262 kts | 100° |
| 2026-05-03 21:43 | 51.36358 | -0.51950 | 14599 ft | 270 kts | 100° |
| 2026-05-03 21:43 | 51.36126 | -0.48921 | 14783 ft | 278 kts | 100° |
| 2026-05-03 21:44 | 51.35886 | -0.45836 | 15043 ft | 282 kts | 100° |
| 2026-05-03 21:44 | 51.35640 | -0.42696 | 15374 ft | 284 kts | 100° |
| 2026-05-03 21:44 | 51.35393 | -0.39579 | 15685 ft | 287 kts | 100° |
| 2026-05-03 21:44 | 51.35139 | -0.36402 | 15996 ft | 290 kts | 101° |
| 2026-05-03 21:45 | 51.34878 | -0.33144 | 16317 ft | 292 kts | 101° |
| 2026-05-03 21:45 | 51.34617 | -0.29914 | 16617 ft | 294 kts | 101° |
| 2026-05-03 21:45 | 51.34353 | -0.26653 | 16914 ft | 297 kts | 101° |
| 2026-05-03 21:45 | 51.34090 | -0.23416 | 17186 ft | 299 kts | 101° |
| 2026-05-03 21:46 | 51.33819 | -0.20101 | 17473 ft | 302 kts | 101° |
| 2026-05-03 21:46 | 51.33546 | -0.16766 | 17764 ft | 304 kts | 101° |
| 2026-05-03 21:46 | 51.33269 | -0.13400 | 18040 ft | 306 kts | 101° |
| 2026-05-03 21:46 | 51.32990 | -0.10012 | 18281 ft | 309 kts | 101° |
| 2026-05-03 21:47 | 51.32708 | -0.06599 | 18526 ft | 311 kts | 101° |
| 2026-05-03 21:47 | 51.32423 | -0.03171 | 18767 ft | 313 kts | 101° |
| 2026-05-03 21:47 | 51.32134 | 0.00290 | 18976 ft | 315 kts | 101° |
| 2026-05-03 21:47 | 51.31842 | 0.03775 | 19208 ft | 318 kts | 101° |
| 2026-05-03 21:48 | 51.31547 | 0.07283 | 19444 ft | 319 kts | 101° |
| 2026-05-03 21:48 | 51.31250 | 0.10809 | 19696 ft | 321 kts | 101° |
| 2026-05-03 21:48 | 51.30951 | 0.14347 | 19942 ft | 322 kts | 101° |
| 2026-05-03 21:48 | 51.30650 | 0.17903 | 20198 ft | 324 kts | 101° |
| 2026-05-03 21:49 | 51.30344 | 0.21480 | 20417 ft | 326 kts | 101° |
| 2026-05-03 21:49 | 51.30041 | 0.25024 | 20673 ft | 327 kts | 101° |
| 2026-05-03 21:49 | 51.29731 | 0.28633 | 20930 ft | 329 kts | 101° |
| 2026-05-03 21:49 | 51.29418 | 0.32257 | 21141 ft | 330 kts | 101° |
| 2026-05-03 21:50 | 51.29103 | 0.35908 | 21384 ft | 332 kts | 102° |
| 2026-05-03 21:50 | 51.28784 | 0.39572 | 21608 ft | 334 kts | 102° |
| 2026-05-03 21:50 | 51.28463 | 0.43255 | 21815 ft | 336 kts | 102° |
| 2026-05-03 21:50 | 51.28140 | 0.46950 | 22046 ft | 337 kts | 102° |
| 2026-05-03 21:51 | 51.27814 | 0.50667 | 22241 ft | 338 kts | 102° |
| 2026-05-03 21:51 | 51.27484 | 0.54406 | 22469 ft | 340 kts | 102° |
| 2026-05-03 21:51 | 51.27157 | 0.58097 | 22678 ft | 342 kts | 102° |
| 2026-05-03 21:51 | 51.26818 | 0.61919 | 22887 ft | 343 kts | 102° |
| 2026-05-03 21:52 | 51.26482 | 0.65692 | 23096 ft | 345 kts | 102° |
| 2026-05-03 21:52 | 51.26141 | 0.69500 | 23309 ft | 347 kts | 102° |
| 2026-05-03 21:52 | 51.25798 | 0.73321 | 23519 ft | 348 kts | 102° |
| 2026-05-03 21:52 | 51.25452 | 0.77158 | 23678 ft | 350 kts | 102° |
| 2026-05-03 21:53 | 51.25104 | 0.81007 | 23848 ft | 351 kts | 102° |
| 2026-05-03 21:53 | 51.24752 | 0.84872 | 23993 ft | 353 kts | 102° |
| 2026-05-03 21:53 | 51.24398 | 0.88756 | 24155 ft | 354 kts | 102° |
| 2026-05-03 21:53 | 51.24046 | 0.92608 | 24308 ft | 356 kts | 103° |
| 2026-05-03 21:54 | 51.23687 | 0.96521 | 24461 ft | 357 kts | 102° |
| 2026-05-03 21:54 | 51.23324 | 1.00453 | 24601 ft | 359 kts | 102° |
| 2026-05-03 21:54 | 51.22957 | 1.04413 | 24762 ft | 361 kts | 103° |
| 2026-05-03 21:54 | 51.22589 | 1.08378 | 24920 ft | 362 kts | 103° |
| 2026-05-03 21:55 | 51.22218 | 1.12361 | 25109 ft | 364 kts | 103° |
| 2026-05-03 21:55 | 51.21843 | 1.16357 | 25239 ft | 365 kts | 103° |
| 2026-05-03 21:55 | 51.21467 | 1.20365 | 25406 ft | 366 kts | 103° |
| 2026-05-03 21:55 | 51.21087 | 1.24387 | 25566 ft | 368 kts | 103° |
| 2026-05-03 21:56 | 51.20704 | 1.28436 | 25724 ft | 369 kts | 103° |
| 2026-05-03 21:56 | 51.20318 | 1.32494 | 25882 ft | 371 kts | 103° |
| 2026-05-03 21:56 | 51.19930 | 1.36560 | 26043 ft | 372 kts | 103° |
| 2026-05-03 21:56 | 51.19539 | 1.40644 | 26203 ft | 373 kts | 103° |
| 2026-05-03 21:57 | 51.19144 | 1.44751 | 26330 ft | 375 kts | 104° |
| 2026-05-03 21:57 | 51.18745 | 1.48876 | 26424 ft | 378 kts | 104° |
| 2026-05-03 21:57 | 51.18344 | 1.53020 | 26580 ft | 379 kts | 104° |
| 2026-05-03 21:57 | 51.17941 | 1.57172 | 26750 ft | 380 kts | 104° |
| 2026-05-03 21:58 | 51.17533 | 1.61345 | 26911 ft | 381 kts | 104° |
| 2026-05-03 21:58 | 51.17124 | 1.65524 | 27059 ft | 382 kts | 104° |
| 2026-05-03 21:58 | 51.16711 | 1.69719 | 27211 ft | 384 kts | 104° |
| 2026-05-03 21:58 | 51.16296 | 1.73925 | 27358 ft | 385 kts | 104° |
| 2026-05-03 21:59 | 51.15877 | 1.78149 | 27509 ft | 386 kts | 104° |
| 2026-05-03 21:59 | 51.15462 | 1.82321 | 27649 ft | 387 kts | 104° |
| 2026-05-03 21:59 | 51.15038 | 1.86565 | 27790 ft | 388 kts | 104° |
| 2026-05-03 21:59 | 51.14610 | 1.90836 | 27903 ft | 389 kts | 105° |
| 2026-05-03 22:00 | 51.14179 | 1.95116 | 27968 ft | 392 kts | 105° |
| 2026-05-03 22:00 | 51.13744 | 1.99418 | 28076 ft | 394 kts | 105° |
| 2026-05-03 22:00 | 51.13306 | 2.03740 | 28226 ft | 395 kts | 105° |
| 2026-05-03 22:00 | 51.12867 | 2.08061 | 28371 ft | 396 kts | 105° |
| 2026-05-03 22:01 | 51.12431 | 2.12331 | 28491 ft | 397 kts | 105° |
| 2026-05-03 22:01 | 51.11985 | 2.16674 | 28627 ft | 398 kts | 105° |
| 2026-05-03 22:01 | 51.11536 | 2.21034 | 28757 ft | 399 kts | 105° |
| 2026-05-03 22:01 | 51.11086 | 2.25392 | 28868 ft | 400 kts | 105° |
| 2026-05-03 22:02 | 51.10633 | 2.29759 | 28982 ft | 401 kts | 105° |
| 2026-05-03 22:02 | 51.10177 | 2.34140 | 29111 ft | 402 kts | 105° |
| 2026-05-03 22:02 | 51.09256 | 2.42934 | 29317 ft | 404 kts | 106° |
| 2026-05-03 22:03 | 51.08791 | 2.47350 | 29431 ft | 404 kts | 106° |
| 2026-05-03 22:03 | 51.08329 | 2.51718 | 29540 ft | 405 kts | 106° |
| 2026-05-03 22:03 | 51.07859 | 2.56147 | 29642 ft | 406 kts | 106° |
| 2026-05-03 22:03 | 51.07387 | 2.60578 | 29740 ft | 407 kts | 106° |
| 2026-05-03 22:04 | 51.06911 | 2.65027 | 29858 ft | 408 kts | 106° |
| 2026-05-03 22:04 | 51.06433 | 2.69484 | 29954 ft | 409 kts | 106° |
| 2026-05-03 22:04 | 51.05467 | 2.78431 | 30109 ft | 412 kts | 106° |
| 2026-05-03 22:05 | 51.04490 | 2.87423 | 30235 ft | 414 kts | 107° |
| 2026-05-03 22:05 | 51.03500 | 2.96451 | 30368 ft | 416 kts | 107° |
| 2026-05-03 22:06 | 51.02497 | 3.05537 | 30519 ft | 418 kts | 107° |
| 2026-05-03 22:06 | 51.01486 | 3.14630 | 30641 ft | 421 kts | 107° |
| 2026-05-03 22:07 | 51.00457 | 3.23815 | 30779 ft | 424 kts | 107° |
| 2026-05-03 22:07 | 50.99415 | 3.33056 | 30878 ft | 427 kts | 108° |
| 2026-05-03 22:08 | 50.98346 | 3.42439 | 30875 ft | 433 kts | 108° |
| 2026-05-03 22:08 | 50.97812 | 3.47133 | 31006 ft | 433 kts | 108° |
| 2026-05-03 22:08 | 50.97273 | 3.51836 | 31095 ft | 433 kts | 108° |
| 2026-05-03 22:09 | 50.96188 | 3.61243 | 31273 ft | 434 kts | 108° |
| 2026-05-03 22:10 | 50.94547 | 3.75323 | 31499 ft | 435 kts | 108° |
| 2026-05-03 22:10 | 50.93433 | 3.84792 | 31514 ft | 439 kts | 108° |
| 2026-05-03 22:11 | 50.92305 | 3.94322 | 31683 ft | 440 kts | 108° |
| 2026-05-03 22:11 | 50.91168 | 4.03859 | 31820 ft | 440 kts | 108° |
| 2026-05-03 22:12 | 50.90021 | 4.13405 | 31979 ft | 441 kts | 108° |
| 2026-05-03 22:12 | 50.88863 | 4.22968 | 32132 ft | 442 kts | 108° |
| 2026-05-03 22:13 | 50.87698 | 4.32525 | 32254 ft | 443 kts | 108° |
| 2026-05-03 22:13 | 50.86521 | 4.42104 | 32372 ft | 443 kts | 108° |
| 2026-05-03 22:14 | 50.85342 | 4.51637 | 32467 ft | 444 kts | 108° |
| 2026-05-03 22:14 | 50.84147 | 4.61232 | 32580 ft | 444 kts | 108° |
| 2026-05-03 22:15 | 50.82942 | 4.70827 | 32630 ft | 445 kts | 107° |
| 2026-05-03 22:15 | 50.81721 | 4.80485 | 32602 ft | 449 kts | 107° |
| 2026-05-03 22:16 | 50.80492 | 4.90157 | 32732 ft | 449 kts | 107° |
| 2026-05-03 22:16 | 50.79252 | 4.99833 | 32818 ft | 449 kts | 107° |
| 2026-05-03 22:17 | 50.78010 | 5.09456 | 32892 ft | 450 kts | 108° |
| 2026-05-03 22:17 | 50.76752 | 5.19137 | 32957 ft | 450 kts | 107° |
| 2026-05-03 22:18 | 50.75482 | 5.28839 | 32989 ft | 451 kts | 107° |
| 2026-05-03 22:18 | 50.74196 | 5.38611 | 33077 ft | 451 kts | 107° |
| 2026-05-03 22:19 | 50.72916 | 5.48258 | 33141 ft | 452 kts | 107° |
| 2026-05-03 22:19 | 50.71618 | 5.57974 | 33217 ft | 452 kts | 107° |
| 2026-05-03 22:20 | 50.70314 | 5.67676 | 33351 ft | 450 kts | 107° |
| 2026-05-03 22:20 | 50.69008 | 5.77321 | 33423 ft | 450 kts | 107° |
| 2026-05-03 22:21 | 50.67689 | 5.86996 | 33473 ft | 451 kts | 107° |
| 2026-05-03 22:21 | 50.66365 | 5.96647 | 33516 ft | 451 kts | 107° |
| 2026-05-03 22:22 | 50.65032 | 6.06298 | 33585 ft | 451 kts | 107° |
| 2026-05-03 22:22 | 50.63695 | 6.15922 | 33757 ft | 448 kts | 107° |
| 2026-05-03 22:23 | 50.62354 | 6.25501 | 33785 ft | 448 kts | 107° |
| 2026-05-03 22:23 | 50.61003 | 6.35095 | 33827 ft | 448 kts | 107° |
| 2026-05-03 22:24 | 50.59654 | 6.44613 | 33854 ft | 448 kts | 107° |
| 2026-05-03 22:24 | 50.58284 | 6.54220 | 33882 ft | 448 kts | 107° |
| 2026-05-03 22:24 | 50.57603 | 6.58979 | 34095 ft | 442 kts | 107° |
| 2026-05-03 22:25 | 50.56935 | 6.63631 | 34162 ft | 441 kts | 107° |
| 2026-05-03 22:25 | 50.55570 | 6.73064 | 34131 ft | 443 kts | 107° |
| 2026-05-03 22:26 | 50.54196 | 6.82516 | 34144 ft | 443 kts | 107° |
| 2026-05-03 22:26 | 50.52817 | 6.91955 | 34174 ft | 443 kts | 107° |
| 2026-05-03 22:27 | 50.51440 | 7.01320 | 34248 ft | 439 kts | 107° |
| 2026-05-03 22:27 | 50.50975 | 7.04471 | 34381 ft | 437 kts | 107° |
| 2026-05-03 22:27 | 50.50064 | 7.10619 | 34412 ft | 436 kts | 108° |
| 2026-05-03 22:28 | 50.48678 | 7.19913 | 34379 ft | 437 kts | 108° |
| 2026-05-03 22:28 | 50.47513 | 7.27698 | 34385 ft | 437 kts | 108° |
| 2026-05-03 22:29 | 50.46126 | 7.36918 | 34372 ft | 437 kts | 108° |
| 2026-05-03 22:29 | 50.44717 | 7.46223 | 34388 ft | 437 kts | 107° |
| 2026-05-03 22:30 | 50.43304 | 7.55505 | 34397 ft | 437 kts | 107° |
| 2026-05-03 22:30 | 50.41882 | 7.64791 | 34417 ft | 437 kts | 107° |
| 2026-05-03 22:31 | 50.40454 | 7.74063 | 34443 ft | 437 kts | 108° |
| 2026-05-03 22:31 | 50.39020 | 7.83320 | 34457 ft | 437 kts | 108° |
| 2026-05-03 22:32 | 50.37573 | 7.92603 | 34377 ft | 439 kts | 108° |
| 2026-05-03 22:32 | 50.36126 | 8.01846 | 34377 ft | 439 kts | 108° |
| 2026-05-03 22:33 | 50.34662 | 8.11137 | 34397 ft | 439 kts | 108° |
| 2026-05-03 22:33 | 50.33190 | 8.20425 | 34414 ft | 439 kts | 108° |
| 2026-05-03 22:34 | 50.31712 | 8.29701 | 34423 ft | 439 kts | 108° |
| 2026-05-03 22:34 | 50.30229 | 8.38955 | 34535 ft | 436 kts | 109° |
| 2026-05-03 22:35 | 50.28753 | 8.48108 | 34534 ft | 436 kts | 109° |
| 2026-05-03 22:35 | 50.27263 | 8.57300 | 34515 ft | 436 kts | 109° |
| 2026-05-03 22:36 | 50.25764 | 8.66503 | 34523 ft | 436 kts | 109° |
| 2026-05-03 22:36 | 50.24258 | 8.75695 | 34524 ft | 436 kts | 109° |
| 2026-05-03 22:37 | 50.22745 | 8.84877 | 34534 ft | 436 kts | 109° |
| 2026-05-03 22:37 | 50.21234 | 8.94003 | 34543 ft | 436 kts | 109° |
| 2026-05-03 22:38 | 50.19707 | 9.03169 | 34548 ft | 436 kts | 109° |
| 2026-05-03 22:38 | 50.18174 | 9.12330 | 34553 ft | 436 kts | 109° |
| 2026-05-03 22:39 | 50.16632 | 9.21494 | 34561 ft | 436 kts | 110° |
| 2026-05-03 22:39 | 50.15081 | 9.30653 | 34503 ft | 437 kts | 110° |
| 2026-05-03 22:40 | 50.13522 | 9.39826 | 34524 ft | 437 kts | 110° |
| 2026-05-03 22:40 | 50.11958 | 9.48972 | 34538 ft | 437 kts | 110° |
| 2026-05-03 22:41 | 50.10396 | 9.58058 | 34545 ft | 437 kts | 110° |
| 2026-05-03 22:41 | 50.08816 | 9.67205 | 34563 ft | 436 kts | 110° |
| 2026-05-03 22:42 | 50.07233 | 9.76315 | 34621 ft | 435 kts | 110° |
| 2026-05-03 22:42 | 50.05643 | 9.85416 | 34600 ft | 436 kts | 110° |
| 2026-05-03 22:43 | 50.04058 | 9.94450 | 34596 ft | 435 kts | 110° |
| 2026-05-03 22:43 | 50.02451 | 10.03562 | 34593 ft | 436 kts | 110° |
| 2026-05-03 22:44 | 50.00842 | 10.12642 | 34667 ft | 433 kts | 110° |
| 2026-05-03 22:44 | 49.99246 | 10.21596 | 34701 ft | 432 kts | 110° |
| 2026-05-03 22:45 | 49.97632 | 10.30603 | 34675 ft | 432 kts | 110° |
| 2026-05-03 22:45 | 49.96013 | 10.39598 | 34672 ft | 432 kts | 110° |
| 2026-05-03 22:46 | 49.94385 | 10.48600 | 34664 ft | 432 kts | 110° |
| 2026-05-03 22:46 | 49.92755 | 10.57568 | 34729 ft | 430 kts | 110° |
| 2026-05-03 22:47 | 49.91134 | 10.66441 | 34715 ft | 430 kts | 110° |
| 2026-05-03 22:47 | 49.89495 | 10.75370 | 34727 ft | 430 kts | 110° |
| 2026-05-03 22:48 | 49.87848 | 10.84295 | 34735 ft | 430 kts | 110° |
| 2026-05-03 22:48 | 49.86194 | 10.93219 | 34734 ft | 430 kts | 110° |
| 2026-05-03 22:49 | 49.84528 | 11.02165 | 34697 ft | 431 kts | 110° |
| 2026-05-03 22:49 | 49.82871 | 11.11027 | 34722 ft | 431 kts | 110° |
| 2026-05-03 22:50 | 49.81191 | 11.19962 | 34728 ft | 431 kts | 110° |
| 2026-05-03 22:50 | 49.79507 | 11.28873 | 34706 ft | 431 kts | 110° |
| 2026-05-03 22:51 | 49.77829 | 11.37714 | 34708 ft | 431 kts | 110° |
| 2026-05-03 22:51 | 49.76132 | 11.46609 | 34677 ft | 432 kts | 110° |
| 2026-05-03 22:52 | 49.74425 | 11.55522 | 34690 ft | 431 kts | 110° |
| 2026-05-03 22:52 | 49.72715 | 11.64405 | 34684 ft | 431 kts | 110° |
| 2026-05-03 22:53 | 49.70994 | 11.73301 | 34688 ft | 431 kts | 110° |
| 2026-05-03 22:53 | 49.69269 | 11.82179 | 34679 ft | 431 kts | 110° |
| 2026-05-03 22:54 | 49.67556 | 11.90954 | 34748 ft | 429 kts | 110° |
| 2026-05-03 22:54 | 49.65823 | 11.99786 | 34726 ft | 429 kts | 110° |
| 2026-05-03 22:55 | 49.64084 | 12.08610 | 34723 ft | 429 kts | 110° |
| 2026-05-03 22:55 | 49.62340 | 12.17423 | 34729 ft | 429 kts | 110° |
| 2026-05-03 22:56 | 49.60601 | 12.26167 | 34689 ft | 431 kts | 109° |
| 2026-05-03 22:56 | 49.58837 | 12.35005 | 34658 ft | 431 kts | 109° |
| 2026-05-03 22:57 | 49.57061 | 12.43859 | 34678 ft | 431 kts | 109° |
| 2026-05-03 22:57 | 49.55284 | 12.52679 | 34682 ft | 431 kts | 109° |
| 2026-05-03 22:58 | 49.53500 | 12.61490 | 34690 ft | 431 kts | 109° |
| 2026-05-03 22:58 | 49.51718 | 12.70249 | 34624 ft | 432 kts | 109° |
| 2026-05-03 22:59 | 49.49914 | 12.79087 | 34626 ft | 432 kts | 110° |
| 2026-05-03 22:59 | 49.48102 | 12.87920 | 34646 ft | 432 kts | 110° |
| 2026-05-03 23:00 | 49.46286 | 12.96728 | 34648 ft | 432 kts | 109° |
| 2026-05-03 23:00 | 49.44476 | 13.05474 | 34664 ft | 432 kts | 110° |
| 2026-05-03 23:01 | 49.42646 | 13.14275 | 34669 ft | 432 kts | 110° |
| 2026-05-03 23:01 | 49.40810 | 13.23068 | 34682 ft | 432 kts | 110° |
| 2026-05-03 23:02 | 49.38969 | 13.31842 | 34691 ft | 432 kts | 110° |
| 2026-05-03 23:02 | 49.37120 | 13.40623 | 34703 ft | 432 kts | 110° |
| 2026-05-03 23:03 | 49.35278 | 13.49326 | 34701 ft | 432 kts | 110° |
| 2026-05-03 23:03 | 49.33415 | 13.58096 | 34703 ft | 431 kts | 110° |
| 2026-05-03 23:04 | 49.31549 | 13.66841 | 34709 ft | 431 kts | 110° |
| 2026-05-03 23:04 | 49.29676 | 13.75581 | 34707 ft | 431 kts | 110° |
| 2026-05-03 23:05 | 49.27794 | 13.84321 | 34723 ft | 431 kts | 110° |
| 2026-05-03 23:05 | 49.25918 | 13.93003 | 34735 ft | 431 kts | 110° |
| 2026-05-03 23:06 | 49.24027 | 14.01711 | 34752 ft | 431 kts | 110° |
| 2026-05-03 23:06 | 49.22132 | 14.10403 | 34748 ft | 431 kts | 110° |
| 2026-05-03 23:07 | 49.20228 | 14.19102 | 34750 ft | 431 kts | 110° |
| 2026-05-03 23:07 | 49.18319 | 14.27787 | 34751 ft | 431 kts | 110° |
| 2026-05-03 23:08 | 49.16418 | 14.36396 | 34898 ft | 427 kts | 110° |
| 2026-05-03 23:08 | 49.14512 | 14.44991 | 34900 ft | 426 kts | 110° |
| 2026-05-03 23:09 | 49.12615 | 14.53511 | 34898 ft | 426 kts | 110° |
| 2026-05-03 23:09 | 49.10700 | 14.62079 | 34895 ft | 426 kts | 110° |
| 2026-05-03 23:10 | 49.08775 | 14.70655 | 34888 ft | 426 kts | 110° |
| 2026-05-03 23:10 | 49.06844 | 14.79226 | 34855 ft | 427 kts | 109° |
| 2026-05-03 23:11 | 49.04920 | 14.87730 | 34841 ft | 427 kts | 109° |
| 2026-05-03 23:11 | 49.02975 | 14.96294 | 34851 ft | 427 kts | 110° |
| 2026-05-03 23:12 | 49.01024 | 15.04851 | 34849 ft | 427 kts | 110° |
| 2026-05-03 23:12 | 48.99065 | 15.13404 | 34850 ft | 428 kts | 109° |
| 2026-05-03 23:13 | 48.97100 | 15.21950 | 34850 ft | 428 kts | 109° |
| 2026-05-03 23:13 | 48.95144 | 15.30426 | 34853 ft | 428 kts | 109° |
| 2026-05-03 23:14 | 48.93166 | 15.38962 | 34846 ft | 427 kts | 109° |
| 2026-05-03 23:14 | 48.91180 | 15.47498 | 34845 ft | 427 kts | 109° |
| 2026-05-03 23:15 | 48.89186 | 15.56034 | 34837 ft | 428 kts | 109° |
| 2026-05-03 23:15 | 48.87205 | 15.64483 | 34815 ft | 428 kts | 109° |
| 2026-05-03 23:16 | 48.85199 | 15.73003 | 34815 ft | 428 kts | 109° |
| 2026-05-03 23:16 | 48.83188 | 15.81514 | 34818 ft | 428 kts | 109° |
| 2026-05-03 23:17 | 48.81166 | 15.90032 | 34817 ft | 428 kts | 109° |
| 2026-05-03 23:17 | 48.79139 | 15.98542 | 34821 ft | 428 kts | 109° |
| 2026-05-03 23:18 | 48.77452 | 16.05602 | 34812 ft | 428 kts | 109° |
| 2026-05-03 23:18 | 48.75080 | 16.15486 | 34809 ft | 429 kts | 109° |
| 2026-05-03 23:19 | 48.73378 | 16.22547 | 34808 ft | 429 kts | 109° |
| 2026-05-03 23:19 | 48.71326 | 16.31034 | 34803 ft | 429 kts | 109° |
| 2026-05-03 23:20 | 48.69264 | 16.39532 | 34809 ft | 429 kts | 109° |
| 2026-05-03 23:20 | 48.67197 | 16.48019 | 34792 ft | 430 kts | 109° |
| 2026-05-03 23:21 | 48.65130 | 16.56470 | 34800 ft | 431 kts | 109° |
| 2026-05-03 23:21 | 48.63044 | 16.64969 | 34789 ft | 432 kts | 109° |
| 2026-05-03 23:22 | 48.59895 | 16.77735 | 34812 ft | 433 kts | 109° |
| 2026-05-03 23:22 | 48.57783 | 16.86258 | 34813 ft | 433 kts | 109° |
| 2026-05-03 23:23 | 48.55660 | 16.94794 | 34828 ft | 434 kts | 109° |
| 2026-05-03 23:23 | 48.53525 | 17.03342 | 34846 ft | 436 kts | 109° |
| 2026-05-03 23:24 | 48.51395 | 17.11842 | 34845 ft | 437 kts | 109° |
| 2026-05-03 23:24 | 48.49235 | 17.20427 | 34861 ft | 438 kts | 109° |
| 2026-05-03 23:25 | 48.47060 | 17.29039 | 34863 ft | 440 kts | 109° |
| 2026-05-03 23:25 | 48.44873 | 17.37667 | 34861 ft | 442 kts | 109° |
| 2026-05-03 23:26 | 48.42666 | 17.46339 | 34870 ft | 444 kts | 109° |
| 2026-05-03 23:26 | 48.40445 | 17.55034 | 34888 ft | 446 kts | 109° |
| 2026-05-03 23:27 | 48.38220 | 17.63713 | 34890 ft | 448 kts | 109° |
| 2026-05-03 23:27 | 48.35967 | 17.72467 | 34896 ft | 450 kts | 109° |
| 2026-05-03 23:28 | 48.33694 | 17.81266 | 34916 ft | 452 kts | 109° |
| 2026-05-03 23:28 | 48.31405 | 17.90093 | 34973 ft | 454 kts | 109° |
| 2026-05-03 23:29 | 48.29100 | 17.98944 | 35008 ft | 456 kts | 109° |
| 2026-05-03 23:29 | 48.26778 | 18.07829 | 34982 ft | 459 kts | 109° |
| 2026-05-03 23:30 | 48.24430 | 18.16782 | 34999 ft | 462 kts | 110° |
| 2026-05-03 23:30 | 48.22079 | 18.25708 | 35080 ft | 463 kts | 110° |
| 2026-05-03 23:31 | 48.19700 | 18.34701 | 35119 ft | 464 kts | 109° |
| 2026-05-03 23:31 | 48.17315 | 18.43684 | 35125 ft | 464 kts | 110° |
| 2026-05-03 23:32 | 48.14923 | 18.52655 | 35128 ft | 463 kts | 110° |
| 2026-05-03 23:32 | 48.12536 | 18.61573 | 35130 ft | 463 kts | 110° |
| 2026-05-03 23:33 | 48.10133 | 18.70517 | 35136 ft | 463 kts | 110° |
| 2026-05-03 23:33 | 48.07718 | 18.79475 | 35143 ft | 463 kts | 110° |
| 2026-05-03 23:34 | 48.05316 | 18.88345 | 35152 ft | 463 kts | 110° |
| 2026-05-03 23:34 | 48.02889 | 18.97277 | 35152 ft | 463 kts | 110° |
| 2026-05-03 23:35 | 48.00459 | 19.06184 | 35156 ft | 463 kts | 110° |
| 2026-05-03 23:35 | 47.98025 | 19.15074 | 35151 ft | 462 kts | 110° |
| 2026-05-03 23:36 | 47.95583 | 19.23958 | 35153 ft | 462 kts | 110° |
| 2026-05-03 23:36 | 47.93147 | 19.32788 | 35153 ft | 462 kts | 110° |
| 2026-05-03 23:37 | 47.90692 | 19.41653 | 35166 ft | 462 kts | 110° |
| 2026-05-03 23:37 | 47.88235 | 19.50494 | 35150 ft | 461 kts | 110° |
| 2026-05-03 23:38 | 47.85787 | 19.59265 | 35149 ft | 460 kts | 110° |
| 2026-05-03 23:38 | 47.83322 | 19.68070 | 35153 ft | 460 kts | 110° |
| 2026-05-03 23:39 | 47.80850 | 19.76865 | 35159 ft | 461 kts | 110° |
| 2026-05-03 23:39 | 47.78371 | 19.85655 | 35153 ft | 459 kts | 109° |
| 2026-05-03 23:40 | 47.75897 | 19.94391 | 35154 ft | 459 kts | 109° |
| 2026-05-03 23:40 | 47.73428 | 20.03079 | 35154 ft | 459 kts | 109° |
| 2026-05-03 23:41 | 47.70938 | 20.11815 | 35154 ft | 459 kts | 110° |
| 2026-05-03 23:41 | 47.68442 | 20.20534 | 35154 ft | 458 kts | 109° |
| 2026-05-03 23:42 | 47.65944 | 20.29227 | 35151 ft | 456 kts | 109° |
| 2026-05-03 23:42 | 47.63453 | 20.37868 | 35151 ft | 456 kts | 109° |
| 2026-05-03 23:43 | 47.60947 | 20.46534 | 35151 ft | 456 kts | 109° |
| 2026-05-03 23:43 | 47.58458 | 20.55107 | 35157 ft | 456 kts | 109° |
| 2026-05-03 23:44 | 47.55946 | 20.63729 | 35148 ft | 455 kts | 110° |
| 2026-05-03 23:44 | 47.53431 | 20.72330 | 35148 ft | 455 kts | 110° |
| 2026-05-03 23:45 | 47.50907 | 20.80934 | 35146 ft | 455 kts | 110° |
| 2026-05-03 23:45 | 47.48379 | 20.89519 | 35147 ft | 455 kts | 110° |
| 2026-05-03 23:46 | 47.45843 | 20.98104 | 35145 ft | 455 kts | 110° |
| 2026-05-03 23:46 | 47.43320 | 21.06612 | 35146 ft | 455 kts | 110° |
| 2026-05-03 23:47 | 47.40774 | 21.15171 | 35146 ft | 455 kts | 110° |
| 2026-05-03 23:47 | 47.38218 | 21.23731 | 35169 ft | 455 kts | 110° |
| 2026-05-03 23:48 | 47.35658 | 21.32277 | 35145 ft | 454 kts | 110° |
| 2026-05-03 23:48 | 47.33099 | 21.40787 | 35151 ft | 453 kts | 110° |
| 2026-05-03 23:49 | 47.30538 | 21.49277 | 35154 ft | 453 kts | 110° |
| 2026-05-03 23:49 | 47.27970 | 21.57761 | 35154 ft | 453 kts | 110° |